createdAt,value
2022-11-17T00:00:24.223Z,25.30
2022-11-17T00:02:52.110Z,25.30
2022-11-17T00:05:21.231Z,25.30
2022-11-17T00:07:50.844Z,25.30
2022-11-17T00:10:19.116Z,25.30
2022-11-17T00:13:04.451Z,25.30
2022-11-17T00:15:32.343Z,25.30
2022-11-17T00:18:14.059Z,25.30
2022-11-17T00:21:00.454Z,25.30
2022-11-17T00:23:46.993Z,25.30
2022-11-17T00:26:17.171Z,25.30
2022-11-17T00:28:45.456Z,25.30
2022-11-17T00:31:32.102Z,25.30
2022-11-17T00:34:06.100Z,25.30
2022-11-17T00:36:37.399Z,25.30
2022-11-17T00:39:07.740Z,25.30
2022-11-17T00:41:36.183Z,25.20
2022-11-17T00:44:04.732Z,25.20
2022-11-17T00:46:33.507Z,25.20
2022-11-17T00:49:01.342Z,25.20
2022-11-17T00:51:30.103Z,25.20
2022-11-17T00:53:58.033Z,25.20
2022-11-17T00:56:27.710Z,25.20
2022-11-17T00:58:55.956Z,25.20
2022-11-17T01:01:24.537Z,25.20
2022-11-17T01:04:02.618Z,25.20
2022-11-17T01:06:33.670Z,25.20
2022-11-17T01:09:02.183Z,25.20
2022-11-17T01:11:31.639Z,25.20
2022-11-17T01:14:01.890Z,25.20
2022-11-17T01:16:32.811Z,25.20
2022-11-17T01:19:02.082Z,25.20
2022-11-17T01:21:31.726Z,25.20
2022-11-17T01:24:02.420Z,25.20
2022-11-17T01:26:34.375Z,25.20
2022-11-17T01:29:04.875Z,25.10
2022-11-17T01:31:35.638Z,25.10
2022-11-17T01:34:03.566Z,25.10
2022-11-17T01:36:55.779Z,25.10
2022-11-17T01:39:24.979Z,25.10
2022-11-17T01:41:55.570Z,25.10
2022-11-17T01:44:59.132Z,25.10
2022-11-17T01:47:40.515Z,25.10
2022-11-17T01:50:23.311Z,25.10
2022-11-17T01:52:54.750Z,25.10
2022-11-17T01:55:25.349Z,25.00
2022-11-17T01:58:02.442Z,25.00
2022-11-17T02:00:30.751Z,25.00
2022-11-17T02:02:59.129Z,25.00
2022-11-17T02:05:44.485Z,25.00
2022-11-17T02:08:13.282Z,25.00
2022-11-17T02:10:44.755Z,25.00
2022-11-17T02:13:18.137Z,25.00
2022-11-17T02:15:46.140Z,25.00
2022-11-17T02:18:14.248Z,25.00
2022-11-17T02:20:57.940Z,25.00
2022-11-17T02:24:22.195Z,25.00
2022-11-17T02:27:26.017Z,25.00
2022-11-17T02:30:01.684Z,25.00
2022-11-17T02:32:42.295Z,25.00
2022-11-17T02:35:20.801Z,25.00
2022-11-17T02:38:01.055Z,25.00
2022-11-17T02:40:35.649Z,25.00
2022-11-17T02:43:30.638Z,25.00
2022-11-17T02:46:05.668Z,25.00
2022-11-17T02:48:38.774Z,25.00
2022-11-17T02:51:11.432Z,25.00
2022-11-17T02:53:40.691Z,25.00
2022-11-17T02:56:09.193Z,24.90
2022-11-17T02:58:38.364Z,24.90
2022-11-17T03:01:26.669Z,24.90
2022-11-17T03:04:21.223Z,24.90
2022-11-17T03:07:06.268Z,24.90
2022-11-17T03:09:47.820Z,24.90
2022-11-17T03:12:25.663Z,24.90
2022-11-17T03:15:04.830Z,24.90
2022-11-17T03:17:42.260Z,24.90
2022-11-17T03:20:17.019Z,24.90
2022-11-17T03:22:55.357Z,24.90
2022-11-17T03:25:27.084Z,24.90
2022-11-17T03:28:00.603Z,24.90
2022-11-17T03:30:37.215Z,24.90
2022-11-17T03:33:15.592Z,24.90
2022-11-17T03:35:50.853Z,24.90
2022-11-17T03:38:24.387Z,24.80
2022-11-17T03:40:56.811Z,24.90
2022-11-17T03:43:28.456Z,24.90
2022-11-17T03:46:06.253Z,24.80
2022-11-17T03:48:40.578Z,24.80
2022-11-17T03:51:13.835Z,24.80
2022-11-17T03:53:43.432Z,24.80
2022-11-17T03:56:28.426Z,24.80
2022-11-17T03:59:02.212Z,24.80
2022-11-17T04:01:34.856Z,24.80
2022-11-17T04:04:02.765Z,24.80
2022-11-17T04:06:30.587Z,24.80
2022-11-17T04:08:58.382Z,24.80
2022-11-17T04:11:43.491Z,24.80
2022-11-17T04:14:36.926Z,24.80
2022-11-17T04:17:06.302Z,24.80
2022-11-17T04:19:34.114Z,24.80
2022-11-17T04:22:01.936Z,24.80
2022-11-17T04:24:29.759Z,24.80
2022-11-17T04:27:14.938Z,24.80
2022-11-17T04:29:42.727Z,24.80
2022-11-17T04:32:11.832Z,24.80
2022-11-17T04:34:42.542Z,24.80
2022-11-17T04:37:17.301Z,24.80
2022-11-17T04:39:45.944Z,24.80
2022-11-17T04:42:12.794Z,24.80
2022-11-17T04:44:40.676Z,24.70
2022-11-17T04:47:08.621Z,24.70
2022-11-17T04:49:37.768Z,24.70
2022-11-17T04:52:06.009Z,24.70
2022-11-17T04:54:33.874Z,24.70
2022-11-17T04:57:01.662Z,24.70
2022-11-17T04:59:29.534Z,24.70
2022-11-17T05:02:02.545Z,24.70
2022-11-17T05:04:50.961Z,24.70
2022-11-17T05:07:20.267Z,24.70
2022-11-17T05:09:48.123Z,24.70
2022-11-17T05:12:33.927Z,24.70
2022-11-17T05:15:01.809Z,24.70
2022-11-17T05:17:28.615Z,24.70
2022-11-17T05:19:58.324Z,24.70
2022-11-17T05:22:45.005Z,24.70
2022-11-17T05:25:12.824Z,24.70
2022-11-17T05:27:40.645Z,24.70
2022-11-17T05:30:10.680Z,24.70
2022-11-17T05:32:38.522Z,24.70
2022-11-17T05:35:07.854Z,24.70
2022-11-17T05:37:37.024Z,24.60
2022-11-17T05:40:05.649Z,24.60
2022-11-17T05:42:34.183Z,24.70
2022-11-17T05:45:01.971Z,24.60
2022-11-17T05:47:29.749Z,24.60
2022-11-17T05:49:57.576Z,24.60
2022-11-17T05:52:25.335Z,24.60
2022-11-17T05:54:54.412Z,24.60
2022-11-17T05:57:32.102Z,24.70
2022-11-17T06:00:05.392Z,24.70
2022-11-17T06:02:39.784Z,24.70
2022-11-17T06:05:09.064Z,24.70
2022-11-17T06:07:37.969Z,24.70
2022-11-17T06:10:08.370Z,24.70
2022-11-17T06:12:36.216Z,24.70
2022-11-17T06:15:04.347Z,24.70
2022-11-17T06:17:37.450Z,24.80
2022-11-17T06:20:13.300Z,24.70
2022-11-17T06:22:47.021Z,24.80
2022-11-17T06:25:18.995Z,24.80
2022-11-17T06:27:48.730Z,24.80
2022-11-17T06:30:16.877Z,24.80
2022-11-17T06:32:45.893Z,24.80
2022-11-17T06:35:16.590Z,24.80
2022-11-17T06:37:44.601Z,24.90
2022-11-17T06:40:13.364Z,24.90
2022-11-17T06:43:00.171Z,24.90
2022-11-17T06:45:28.335Z,24.90
2022-11-17T06:47:56.405Z,24.90
2022-11-17T06:50:24.281Z,24.90
2022-11-17T06:52:52.084Z,24.90
2022-11-17T06:55:19.851Z,24.90
2022-11-17T06:57:53.194Z,24.90
2022-11-17T07:00:22.186Z,24.90
2022-11-17T07:02:49.976Z,24.90
2022-11-17T07:05:17.881Z,25.00
2022-11-17T07:07:45.734Z,25.00
2022-11-17T07:10:13.585Z,25.00
2022-11-17T07:12:41.338Z,25.00
2022-11-17T07:15:11.663Z,25.00
2022-11-17T07:17:39.424Z,25.00
2022-11-17T07:20:10.482Z,25.00
2022-11-17T07:22:39.059Z,25.00
2022-11-17T07:25:07.459Z,25.00
2022-11-17T07:27:35.815Z,25.00
2022-11-17T07:30:03.889Z,25.00
2022-11-17T07:32:33.987Z,25.00
2022-11-17T07:35:05.696Z,25.10
2022-11-17T07:37:34.286Z,25.10
2022-11-17T07:40:02.071Z,25.10
2022-11-17T07:42:29.961Z,25.10
2022-11-17T07:44:57.758Z,25.10
2022-11-17T07:47:25.653Z,25.10
2022-11-17T07:49:54.776Z,25.10
2022-11-17T07:52:22.526Z,25.10
2022-11-17T07:54:50.328Z,25.20
2022-11-17T07:57:18.104Z,25.20
2022-11-17T07:59:45.965Z,25.20
2022-11-17T08:02:13.843Z,25.20
2022-11-17T08:04:41.621Z,25.20
2022-11-17T08:07:10.886Z,25.20
2022-11-17T08:09:38.733Z,25.20
2022-11-17T08:12:07.174Z,25.20
2022-11-17T08:14:35.002Z,25.20
2022-11-17T08:17:03.130Z,25.30
2022-11-17T08:19:30.958Z,25.30
2022-11-17T08:21:58.708Z,25.30
2022-11-17T08:24:27.875Z,25.30
2022-11-17T08:26:56.255Z,25.30
2022-11-17T08:29:24.685Z,25.30
2022-11-17T08:31:52.448Z,25.30
2022-11-17T08:34:20.308Z,25.30
2022-11-17T08:36:48.243Z,25.40
2022-11-17T08:39:16.428Z,25.40
2022-11-17T08:41:45.587Z,25.40
2022-11-17T08:44:13.383Z,25.40
2022-11-17T08:46:41.175Z,25.40
2022-11-17T08:49:08.947Z,25.40
2022-11-17T08:51:36.830Z,25.40
2022-11-17T08:54:04.882Z,25.40
2022-11-17T08:56:32.713Z,25.50
2022-11-17T08:59:03.594Z,25.50
2022-11-17T09:01:31.322Z,25.50
2022-11-17T09:03:59.166Z,25.50
2022-11-17T09:06:27.024Z,25.50
2022-11-17T09:08:55.651Z,25.50
2022-11-17T09:11:23.902Z,25.50
2022-11-17T09:13:51.900Z,25.50
2022-11-17T09:16:21.067Z,25.50
2022-11-17T09:18:48.852Z,25.60
2022-11-17T09:21:17.265Z,25.60
2022-11-17T09:23:45.605Z,25.60
2022-11-17T09:26:15.621Z,25.60
2022-11-17T09:28:44.267Z,25.60
2022-11-17T09:31:15.332Z,25.60
2022-11-17T09:33:45.058Z,25.60
2022-11-17T09:36:16.161Z,25.60
2022-11-17T09:38:44.204Z,25.70
2022-11-17T09:41:26.251Z,25.70
2022-11-17T09:44:16.457Z,25.70
2022-11-17T09:47:03.086Z,25.70
2022-11-17T09:49:46.887Z,25.70
2022-11-17T09:52:21.799Z,25.70
2022-11-17T09:54:56.308Z,25.70
2022-11-17T09:57:34.967Z,25.70
2022-11-17T10:00:14.744Z,25.70
2022-11-17T10:02:43.723Z,25.70
2022-11-17T10:05:20.511Z,25.70
2022-11-17T10:07:52.455Z,25.70
2022-11-17T10:10:28.950Z,25.70
2022-11-17T10:13:00.105Z,25.80
2022-11-17T10:15:34.615Z,25.70
2022-11-17T10:18:02.431Z,25.80
2022-11-17T10:20:31.863Z,25.70
2022-11-17T10:23:00.187Z,25.70
2022-11-17T10:25:47.476Z,25.70
2022-11-17T10:28:28.024Z,25.70
2022-11-17T10:31:00.146Z,25.70
2022-11-17T10:33:38.256Z,25.70
2022-11-17T10:36:19.890Z,25.70
2022-11-17T10:38:50.891Z,25.80
2022-11-17T10:41:21.128Z,25.80
2022-11-17T10:44:01.118Z,25.80
2022-11-17T10:46:36.757Z,25.80
2022-11-17T10:49:26.982Z,25.80
2022-11-17T10:52:15.242Z,25.80
2022-11-17T10:54:43.569Z,25.80
2022-11-17T10:57:21.351Z,25.80
2022-11-17T10:59:57.010Z,25.80
2022-11-17T11:02:32.145Z,25.80
2022-11-17T11:05:21.162Z,25.70
2022-11-17T11:07:50.866Z,25.80
2022-11-17T11:10:27.831Z,25.70
2022-11-17T11:13:11.605Z,25.70
2022-11-17T11:15:40.397Z,25.70
2022-11-17T11:18:19.114Z,25.70
2022-11-17T11:20:57.243Z,25.70
2022-11-17T11:23:44.485Z,25.70
2022-11-17T11:26:35.936Z,25.70
2022-11-17T11:29:21.410Z,25.70
2022-11-17T11:32:04.653Z,25.70
2022-11-17T11:35:16.041Z,25.70
2022-11-17T11:38:00.245Z,25.70
2022-11-17T11:40:35.963Z,25.70
2022-11-17T11:43:22.006Z,25.70
2022-11-17T11:46:04.248Z,25.70
2022-11-17T11:48:34.912Z,25.70
2022-11-17T11:51:10.791Z,25.70
2022-11-17T11:53:51.850Z,25.70
2022-11-17T11:56:26.068Z,25.70
2022-11-17T11:59:02.165Z,25.70
2022-11-17T12:01:41.442Z,25.70
2022-11-17T12:04:25.590Z,25.70
2022-11-17T12:07:05.521Z,25.70
2022-11-17T12:09:57.222Z,25.70
2022-11-17T12:12:33.255Z,25.80
2022-11-17T12:15:31.111Z,25.80
2022-11-17T12:18:06.107Z,25.80
2022-11-17T12:20:55.195Z,25.80
2022-11-17T12:23:56.811Z,25.80
2022-11-17T12:26:28.836Z,25.80
2022-11-17T12:29:31.757Z,25.90
2022-11-17T12:32:03.312Z,25.90
2022-11-17T12:34:37.241Z,25.90
2022-11-17T12:37:29.173Z,25.90
2022-11-17T12:40:03.599Z,25.90
2022-11-17T12:42:33.052Z,25.90
2022-11-17T12:45:13.301Z,25.90
2022-11-17T12:47:46.166Z,25.90
2022-11-17T12:50:50.169Z,25.90
2022-11-17T12:53:47.742Z,25.90
2022-11-17T12:56:33.912Z,25.90
2022-11-17T12:59:24.111Z,26.00
2022-11-17T13:02:05.551Z,26.00
2022-11-17T13:04:46.393Z,26.00
2022-11-17T13:07:21.524Z,26.00
2022-11-17T13:09:52.875Z,26.00
2022-11-17T13:12:24.764Z,26.10
2022-11-17T13:14:55.812Z,26.10
2022-11-17T13:17:30.344Z,26.10
2022-11-17T13:20:04.872Z,26.10
2022-11-17T13:22:35.331Z,26.10
2022-11-17T13:25:22.025Z,26.10
2022-11-17T13:27:56.073Z,26.10
2022-11-17T13:30:30.206Z,26.00
2022-11-17T13:33:03.785Z,26.10
2022-11-17T13:35:35.237Z,26.10
2022-11-17T13:38:06.755Z,26.10
2022-11-17T13:40:37.670Z,26.10
2022-11-17T13:43:05.891Z,26.10
2022-11-17T13:45:34.081Z,26.10
2022-11-17T13:48:03.327Z,26.10
2022-11-17T13:50:38.207Z,26.00
2022-11-17T13:53:24.096Z,26.10
2022-11-17T13:55:53.099Z,26.00
2022-11-17T13:58:34.847Z,26.00
2022-11-17T14:01:03.621Z,26.00
2022-11-17T14:03:39.173Z,26.00
2022-11-17T14:06:09.639Z,26.00
2022-11-17T14:08:39.779Z,26.00
2022-11-17T14:11:16.249Z,26.00
2022-11-17T14:13:46.695Z,26.10
2022-11-17T14:16:28.627Z,26.00
2022-11-17T14:19:03.054Z,26.00
2022-11-17T14:21:32.332Z,26.00
2022-11-17T14:24:13.250Z,26.00
2022-11-17T14:26:45.543Z,26.00
2022-11-17T14:29:14.978Z,26.00
2022-11-17T14:31:43.211Z,26.00
2022-11-17T14:34:12.949Z,26.00
2022-11-17T14:36:42.088Z,26.00
2022-11-17T14:39:18.989Z,26.10
2022-11-17T14:41:49.259Z,26.10
2022-11-17T14:44:17.990Z,26.10
2022-11-17T14:46:46.023Z,26.10
2022-11-17T14:49:15.483Z,26.10
2022-11-17T14:51:43.556Z,26.10
2022-11-17T14:54:11.393Z,26.10
2022-11-17T14:56:39.289Z,26.10
2022-11-17T14:59:08.320Z,26.10
2022-11-17T15:01:38.574Z,26.10
2022-11-17T15:04:34.384Z,26.00
2022-11-17T15:06:57.558Z,26.10
2022-11-17T15:09:25.605Z,26.00
2022-11-17T15:11:53.512Z,26.00
2022-11-17T15:14:21.558Z,26.00
2022-11-17T15:16:49.726Z,26.00
2022-11-17T15:19:17.783Z,26.00
2022-11-17T15:21:45.800Z,26.00
2022-11-17T15:24:15.567Z,26.00
2022-11-17T15:26:44.406Z,26.00
2022-11-17T15:29:15.294Z,26.00
2022-11-17T15:31:44.052Z,26.00
2022-11-17T15:34:15.678Z,26.00
2022-11-17T15:36:48.229Z,26.00
2022-11-17T15:39:18.014Z,26.00
2022-11-17T15:41:46.395Z,26.00
2022-11-17T15:44:14.873Z,26.00
2022-11-17T15:46:47.392Z,26.00
2022-11-17T15:49:15.989Z,25.90
2022-11-17T15:51:44.233Z,26.00
2022-11-17T15:54:18.487Z,25.90
2022-11-17T15:56:52.109Z,26.00
2022-11-17T15:59:20.583Z,26.00
2022-11-17T16:01:48.944Z,25.90
2022-11-17T16:04:17.176Z,26.00
2022-11-17T16:06:47.159Z,25.90
2022-11-17T16:09:17.082Z,25.90
2022-11-17T16:11:45.575Z,26.00
2022-11-17T16:14:15.349Z,26.00
2022-11-17T16:16:43.632Z,25.90
2022-11-17T16:19:11.488Z,25.90
2022-11-17T16:21:39.302Z,25.90
2022-11-17T16:24:08.131Z,25.90
2022-11-17T16:26:37.096Z,25.90
2022-11-17T16:29:07.930Z,25.90
2022-11-17T16:31:38.627Z,25.90
2022-11-17T16:34:11.552Z,25.90
2022-11-17T16:36:41.441Z,25.90
2022-11-17T16:39:12.136Z,25.90
2022-11-17T16:41:42.452Z,25.90
2022-11-17T16:44:13.686Z,25.90
2022-11-17T16:46:45.625Z,25.90
2022-11-17T16:49:16.043Z,25.90
2022-11-17T16:51:48.704Z,26.00
2022-11-17T16:54:17.958Z,26.00
2022-11-17T16:56:45.869Z,26.00
2022-11-17T16:59:14.842Z,26.00
2022-11-17T17:01:47.610Z,25.90
2022-11-17T17:04:15.738Z,26.00
2022-11-17T17:06:45.950Z,25.90
2022-11-17T17:09:16.069Z,26.00
2022-11-17T17:11:44.289Z,26.00
2022-11-17T17:14:15.889Z,26.00
2022-11-17T17:16:45.103Z,26.00
2022-11-17T17:19:16.453Z,26.00
2022-11-17T17:21:45.541Z,26.00
2022-11-17T17:24:13.756Z,26.00
2022-11-17T17:26:42.151Z,26.00
2022-11-17T17:29:11.744Z,26.00
2022-11-17T17:31:42.391Z,26.00
2022-11-17T17:34:13.860Z,26.00
2022-11-17T17:36:41.798Z,26.00
2022-11-17T17:39:11.314Z,26.00
2022-11-17T17:41:41.879Z,26.00
2022-11-17T17:44:15.576Z,26.00
2022-11-17T17:46:44.069Z,26.00
2022-11-17T17:49:14.280Z,26.00
2022-11-17T17:51:44.756Z,26.00
2022-11-17T17:54:17.639Z,26.00
2022-11-17T17:56:46.550Z,26.00
2022-11-17T17:59:15.938Z,26.00
2022-11-17T18:01:46.107Z,26.00
2022-11-17T18:04:16.408Z,26.00
2022-11-17T18:06:47.402Z,26.00
2022-11-17T18:09:19.041Z,26.00
2022-11-17T18:11:49.647Z,26.00
2022-11-17T18:14:20.421Z,26.00
2022-11-17T18:16:49.670Z,26.00
2022-11-17T18:19:19.650Z,26.00
2022-11-17T18:21:47.776Z,26.00
2022-11-17T18:24:15.601Z,26.00
2022-11-17T18:26:43.860Z,26.00
2022-11-17T18:29:16.368Z,26.00
2022-11-17T18:31:46.747Z,26.00
2022-11-17T18:34:20.903Z,26.00
2022-11-17T18:36:49.143Z,26.00
2022-11-17T18:39:17.515Z,26.00
2022-11-17T18:41:46.408Z,26.00
2022-11-17T18:44:15.346Z,26.00
2022-11-17T18:46:43.242Z,26.00
2022-11-17T18:49:11.672Z,26.00
2022-11-17T18:51:41.960Z,26.00
2022-11-17T18:54:12.848Z,26.00
2022-11-17T18:56:40.999Z,26.00
2022-11-17T18:59:11.451Z,26.00
2022-11-17T19:01:44.218Z,26.00
2022-11-17T19:04:14.323Z,26.00
2022-11-17T19:06:43.603Z,26.00
2022-11-17T19:09:13.512Z,26.00
2022-11-17T19:11:41.583Z,26.00
2022-11-17T19:14:09.371Z,26.00
2022-11-17T19:16:44.119Z,26.00
2022-11-17T19:19:14.511Z,26.00
2022-11-17T19:21:44.605Z,26.00
2022-11-17T19:24:13.425Z,26.00
2022-11-17T19:26:42.678Z,26.00
2022-11-17T19:29:16.768Z,26.00
2022-11-17T19:31:46.145Z,26.00
2022-11-17T19:34:14.400Z,26.00
2022-11-17T19:36:44.431Z,26.00
2022-11-17T19:39:13.750Z,26.00
2022-11-17T19:41:42.245Z,26.00
2022-11-17T19:44:11.130Z,26.00
2022-11-17T19:46:39.104Z,26.00
2022-11-17T19:49:08.864Z,26.00
2022-11-17T19:51:37.816Z,26.00
2022-11-17T19:54:10.114Z,26.00
2022-11-17T19:56:38.439Z,26.00
2022-11-17T19:59:11.015Z,26.00
2022-11-17T20:01:42.092Z,26.00
2022-11-17T20:04:10.151Z,25.90
2022-11-17T20:06:41.039Z,25.90
2022-11-17T20:09:13.291Z,25.90
2022-11-17T20:11:42.177Z,25.90
2022-11-17T20:14:10.768Z,25.90
2022-11-17T20:16:38.788Z,25.90
2022-11-17T20:19:06.988Z,25.90
2022-11-17T20:21:34.845Z,25.90
2022-11-17T20:24:03.369Z,25.90
2022-11-17T20:26:35.160Z,25.90
2022-11-17T20:29:03.189Z,25.90
2022-11-17T20:31:33.564Z,25.80
2022-11-17T20:34:04.199Z,25.80
2022-11-17T20:36:34.526Z,25.80
2022-11-17T20:39:04.942Z,25.80
2022-11-17T20:41:34.136Z,25.80
2022-11-17T20:44:03.291Z,25.80
2022-11-17T20:46:31.420Z,25.80
2022-11-17T20:48:59.223Z,25.80
2022-11-17T20:51:27.260Z,25.80
2022-11-17T20:53:55.232Z,25.80
2022-11-17T20:56:23.093Z,25.80
2022-11-17T20:58:52.233Z,25.80
2022-11-17T21:01:22.839Z,25.80
2022-11-17T21:03:50.945Z,25.80
2022-11-17T21:06:19.977Z,25.80
2022-11-17T21:08:48.283Z,25.80
2022-11-17T21:11:32.410Z,25.80
2022-11-17T21:14:02.250Z,25.80
2022-11-17T21:16:33.046Z,25.80
2022-11-17T21:19:01.359Z,25.80
2022-11-17T21:21:29.472Z,25.80
2022-11-17T21:23:57.451Z,25.80
2022-11-17T21:26:25.619Z,25.80
2022-11-17T21:28:53.946Z,25.80
2022-11-17T21:31:26.464Z,25.80
2022-11-17T21:33:55.791Z,25.80
2022-11-17T21:36:25.740Z,25.80
2022-11-17T21:38:54.364Z,25.80
2022-11-17T21:41:24.495Z,25.80
2022-11-17T21:43:55.317Z,25.80
2022-11-17T21:46:27.281Z,25.80
2022-11-17T21:48:58.014Z,25.80
2022-11-17T21:51:29.027Z,25.80
2022-11-17T21:53:58.384Z,25.80
2022-11-17T21:56:27.164Z,25.90
2022-11-17T21:58:56.396Z,25.90
2022-11-17T22:01:26.561Z,25.80
2022-11-17T22:03:54.672Z,25.80
2022-11-17T22:06:24.574Z,25.80
2022-11-17T22:08:52.923Z,25.80
2022-11-17T22:11:35.210Z,25.80
2022-11-17T22:14:09.876Z,25.80
2022-11-17T22:16:41.861Z,25.80
2022-11-17T22:19:11.031Z,25.80
2022-11-17T22:21:40.181Z,25.80
2022-11-17T22:24:11.420Z,25.80
2022-11-17T22:26:41.203Z,25.80
2022-11-17T22:29:13.127Z,25.80
2022-11-17T22:31:43.134Z,25.80
2022-11-17T22:34:11.262Z,25.80
2022-11-17T22:36:52.877Z,25.80
2022-11-17T22:39:20.735Z,25.80
2022-11-17T22:41:48.528Z,25.80
2022-11-17T22:44:17.203Z,25.80
2022-11-17T22:46:46.651Z,25.80
2022-11-17T22:49:14.700Z,25.80
2022-11-17T22:52:00.375Z,25.80
2022-11-17T22:54:28.306Z,25.80
2022-11-17T22:56:56.079Z,25.80
2022-11-17T22:59:24.226Z,25.80
2022-11-17T23:01:53.719Z,25.80
2022-11-17T23:04:22.974Z,25.80
2022-11-17T23:06:51.302Z,25.80
2022-11-17T23:09:19.403Z,25.80
2022-11-17T23:11:47.478Z,25.80
2022-11-17T23:14:15.600Z,25.80
2022-11-17T23:16:43.741Z,25.80
2022-11-17T23:19:16.309Z,25.80
2022-11-17T23:21:44.426Z,25.80
2022-11-17T23:24:14.493Z,25.80
2022-11-17T23:26:43.215Z,25.80
2022-11-17T23:29:11.353Z,25.80
2022-11-17T23:31:39.192Z,25.80
2022-11-17T23:34:10.263Z,25.80
2022-11-17T23:36:39.716Z,25.80
2022-11-17T23:39:07.768Z,25.80
2022-11-17T23:41:35.659Z,25.80
2022-11-17T23:44:03.608Z,25.80
2022-11-17T23:46:31.505Z,25.80
2022-11-17T23:48:59.317Z,25.80
2022-11-17T23:51:29.823Z,25.70
2022-11-17T23:54:02.778Z,25.70
2022-11-17T23:56:33.555Z,25.70
2022-11-17T23:59:01.535Z,25.70
